createdAt,value
2022-12-17T00:00:28.444Z,50.908218
2022-12-17T00:01:28.343Z,50.908157
2022-12-17T00:02:28.412Z,50.908165
2022-12-17T00:03:28.417Z,50.908234
2022-12-17T00:04:28.302Z,50.908226
2022-12-17T00:05:28.291Z,50.908157
2022-12-17T00:06:28.316Z,50.908123
2022-12-17T00:07:28.274Z,50.908150
2022-12-17T00:08:28.278Z,50.908180
2022-12-17T00:09:28.261Z,50.908104
2022-12-17T00:10:28.275Z,50.908169
2022-12-17T00:11:28.283Z,50.908203
2022-12-17T00:12:28.235Z,50.908176
2022-12-17T00:13:29.235Z,50.908215
2022-12-17T00:14:28.230Z,50.908157
2022-12-17T00:15:28.219Z,50.908218
2022-12-17T00:16:28.289Z,50.908154
2022-12-17T00:17:28.204Z,50.908207
2022-12-17T00:18:28.196Z,50.908146
2022-12-17T00:19:28.187Z,50.908173
2022-12-17T00:20:28.179Z,50.908138
2022-12-17T00:21:28.205Z,50.908173
2022-12-17T00:22:28.168Z,50.908157
2022-12-17T00:23:28.157Z,50.908276
2022-12-17T00:24:28.148Z,50.908207
2022-12-17T00:25:28.141Z,50.908138
2022-12-17T00:26:28.159Z,50.908104
2022-12-17T00:27:28.129Z,50.908096
2022-12-17T00:28:28.122Z,50.908134
2022-12-17T00:29:28.115Z,50.908138
2022-12-17T00:30:28.096Z,50.908154
2022-12-17T00:31:29.195Z,50.908154
2022-12-17T00:32:28.094Z,50.908154
2022-12-17T00:33:28.086Z,50.908154
2022-12-17T00:34:28.072Z,50.908154
2022-12-17T00:35:28.069Z,50.908154
2022-12-17T00:36:28.087Z,50.908154
2022-12-17T00:37:28.049Z,50.908154
2022-12-17T00:38:28.045Z,50.908154
2022-12-17T00:39:28.034Z,50.908154
2022-12-17T00:40:28.037Z,50.908154
2022-12-17T00:41:28.047Z,50.908154
2022-12-17T00:42:28.019Z,50.908154
2022-12-17T00:43:28.017Z,50.908119
2022-12-17T00:44:28.006Z,50.908127
2022-12-17T00:45:27.995Z,50.908070
2022-12-17T00:46:28.073Z,50.908154
2022-12-17T00:47:27.980Z,50.908154
2022-12-17T00:48:27.977Z,50.908119
2022-12-17T00:49:27.969Z,50.908119
2022-12-17T00:50:27.961Z,50.908134
2022-12-17T00:51:27.987Z,50.908146
2022-12-17T00:52:27.949Z,50.908157
2022-12-17T00:53:27.939Z,50.908146
2022-12-17T00:54:27.932Z,50.908123
2022-12-17T00:55:27.924Z,50.908169
2022-12-17T00:56:27.918Z,50.908138
2022-12-17T00:57:27.938Z,50.908169
2022-12-17T00:58:27.900Z,50.908176
2022-12-17T00:59:27.900Z,50.908142
2022-12-17T01:00:27.938Z,50.908180
2022-12-17T01:01:28.000Z,50.908131
2022-12-17T01:02:28.009Z,50.908131
2022-12-17T01:03:27.863Z,50.908138
2022-12-17T01:04:27.858Z,50.908115
2022-12-17T01:05:27.846Z,50.908127
2022-12-17T01:06:27.842Z,50.908119
2022-12-17T01:07:27.857Z,50.908180
2022-12-17T01:08:27.828Z,50.908127
2022-12-17T01:09:27.823Z,50.908077
2022-12-17T01:10:27.816Z,50.908062
2022-12-17T01:11:27.807Z,50.908089
2022-12-17T01:12:27.826Z,50.908127
2022-12-17T01:13:27.793Z,50.908154
2022-12-17T01:14:27.785Z,50.908165
2022-12-17T01:15:27.780Z,50.908154
2022-12-17T01:16:27.808Z,50.908085
2022-12-17T01:17:27.788Z,50.908115
2022-12-17T01:18:27.756Z,50.908146
2022-12-17T01:19:27.753Z,50.908176
2022-12-17T01:20:27.741Z,50.908138
2022-12-17T01:21:27.744Z,50.908085
2022-12-17T01:22:27.778Z,50.908131
2022-12-17T01:23:27.722Z,50.908085
2022-12-17T01:24:27.716Z,50.908108
2022-12-17T01:25:27.706Z,50.908115
2022-12-17T01:26:27.696Z,50.908100
2022-12-17T01:27:27.716Z,50.908073
2022-12-17T01:28:27.679Z,50.908142
2022-12-17T01:29:27.678Z,50.908188
2022-12-17T01:30:27.666Z,50.908257
2022-12-17T01:31:32.891Z,50.908108
2022-12-17T01:32:29.676Z,50.908134
2022-12-17T01:33:27.648Z,50.908230
2022-12-17T01:34:27.634Z,50.908184
2022-12-17T01:35:28.641Z,50.908176
2022-12-17T01:36:27.626Z,50.908169
2022-12-17T01:37:27.647Z,50.908134
2022-12-17T01:38:27.611Z,50.908165
2022-12-17T01:39:27.607Z,50.908169
2022-12-17T01:40:27.598Z,50.908203
2022-12-17T01:41:27.589Z,50.908192
2022-12-17T01:42:27.609Z,50.908169
2022-12-17T01:43:27.577Z,50.908127
2022-12-17T01:44:27.571Z,50.908115
2022-12-17T01:45:27.609Z,50.908161
2022-12-17T01:46:27.556Z,50.908131
2022-12-17T01:47:27.581Z,50.908146
2022-12-17T01:48:27.543Z,50.908039
2022-12-17T01:49:27.540Z,50.908138
2022-12-17T01:50:27.527Z,50.908108
2022-12-17T01:51:27.522Z,50.908104
2022-12-17T01:52:27.545Z,50.908119
2022-12-17T01:53:28.508Z,50.908150
2022-12-17T01:54:27.499Z,50.908157
2022-12-17T01:55:27.492Z,50.908192
2022-12-17T01:56:27.482Z,50.908215
2022-12-17T01:57:27.479Z,50.908161
2022-12-17T01:58:27.496Z,50.908127
2022-12-17T01:59:27.464Z,50.908119
2022-12-17T02:00:27.456Z,50.908112
2022-12-17T02:01:27.534Z,50.908134
2022-12-17T02:02:27.493Z,50.908154
2022-12-17T02:03:27.481Z,50.908077
2022-12-17T02:04:27.429Z,50.908062
2022-12-17T02:05:27.418Z,50.908092
2022-12-17T02:06:27.415Z,50.908138
2022-12-17T02:07:27.448Z,50.908119
2022-12-17T02:08:27.426Z,50.908092
2022-12-17T02:09:27.386Z,50.908073
2022-12-17T02:10:27.385Z,50.908134
2022-12-17T02:11:27.374Z,50.908287
2022-12-17T02:12:27.368Z,50.908104
2022-12-17T02:13:27.386Z,50.908115
2022-12-17T02:14:27.355Z,50.908161
2022-12-17T02:15:27.343Z,50.908184
2022-12-17T02:16:27.393Z,50.908180
2022-12-17T02:17:27.318Z,50.908329
2022-12-17T02:18:28.347Z,50.908226
2022-12-17T02:19:27.315Z,50.908092
2022-12-17T02:20:27.310Z,50.908092
2022-12-17T02:21:27.302Z,50.908112
2022-12-17T02:22:27.296Z,50.907967
2022-12-17T02:23:27.310Z,50.908066
2022-12-17T02:24:27.273Z,50.908062
2022-12-17T02:25:28.273Z,50.907951
2022-12-17T02:26:27.265Z,50.908035
2022-12-17T02:27:27.259Z,50.908096
2022-12-17T02:28:27.274Z,50.908070
2022-12-17T02:29:27.246Z,50.908051
2022-12-17T02:30:27.237Z,50.908100
2022-12-17T02:31:27.276Z,50.908169
2022-12-17T02:32:27.222Z,50.908138
2022-12-17T02:33:27.234Z,50.908089
2022-12-17T02:34:27.211Z,50.908058
2022-12-17T02:35:27.202Z,50.908100
2022-12-17T02:36:27.197Z,50.908104
2022-12-17T02:37:27.188Z,50.908276
2022-12-17T02:38:27.209Z,50.908199
2022-12-17T02:39:27.186Z,50.908150
2022-12-17T02:40:27.175Z,50.908108
2022-12-17T02:41:27.158Z,50.908073
2022-12-17T02:42:27.154Z,50.908119
2022-12-17T02:43:27.170Z,50.908287
2022-12-17T02:44:27.140Z,50.908199
2022-12-17T02:45:27.136Z,50.908134
2022-12-17T02:46:27.154Z,50.908127
2022-12-17T02:47:27.118Z,50.908119
2022-12-17T02:48:27.138Z,50.908119
2022-12-17T02:49:27.105Z,50.908108
2022-12-17T02:50:27.100Z,50.908108
2022-12-17T02:51:27.091Z,50.908100
2022-12-17T02:52:31.911Z,50.908104
2022-12-17T02:53:29.176Z,50.908043
2022-12-17T02:54:28.067Z,50.908035
2022-12-17T02:55:27.065Z,50.908062
2022-12-17T02:56:27.059Z,50.908047
2022-12-17T02:57:27.050Z,50.908024
2022-12-17T02:58:27.068Z,50.908092
2022-12-17T02:59:27.036Z,50.908115
2022-12-17T03:00:27.024Z,50.908100
2022-12-17T03:01:27.197Z,50.908100
2022-12-17T03:02:27.154Z,50.908047
2022-12-17T03:03:27.086Z,50.908070
2022-12-17T03:04:27.000Z,50.908077
2022-12-17T03:05:54.540Z,50.908085
2022-12-17T03:06:28.982Z,50.908100
2022-12-17T03:07:26.977Z,50.908115
2022-12-17T03:08:27.001Z,50.908138
2022-12-17T03:09:26.962Z,50.908123
2022-12-17T03:10:26.958Z,50.908104
2022-12-17T03:11:26.945Z,50.908081
2022-12-17T03:12:26.947Z,50.908123
2022-12-17T03:13:26.933Z,50.908157
2022-12-17T03:14:26.948Z,50.908077
2022-12-17T03:15:26.915Z,50.908077
2022-12-17T03:16:27.172Z,50.908092
2022-12-17T03:17:26.905Z,50.908131
2022-12-17T03:18:26.927Z,50.908119
2022-12-17T03:19:26.915Z,50.908115
2022-12-17T03:20:26.885Z,50.908138
2022-12-17T03:21:26.880Z,50.908092
2022-12-17T03:22:26.883Z,50.908070
2022-12-17T03:23:26.861Z,50.908115
2022-12-17T03:24:26.879Z,50.908108
2022-12-17T03:25:26.864Z,50.908352
2022-12-17T03:26:26.843Z,50.908215
2022-12-17T03:27:26.831Z,50.908165
2022-12-17T03:28:26.826Z,50.908157
2022-12-17T03:29:26.845Z,50.908127
2022-12-17T03:30:26.898Z,50.908245
2022-12-17T03:31:26.856Z,50.908154
2022-12-17T03:32:26.800Z,50.908161
2022-12-17T03:33:26.786Z,50.908100
2022-12-17T03:34:26.805Z,50.908073
2022-12-17T03:35:26.773Z,50.908115
2022-12-17T03:36:26.770Z,50.908127
2022-12-17T03:37:26.753Z,50.908119
2022-12-17T03:38:26.751Z,50.908127
2022-12-17T03:39:26.765Z,50.908119
2022-12-17T03:40:26.730Z,50.908123
2022-12-17T03:41:26.725Z,50.908131
2022-12-17T03:42:26.715Z,50.908146
2022-12-17T03:43:26.717Z,50.908115
2022-12-17T03:44:26.735Z,50.908138
2022-12-17T03:45:26.698Z,50.908138
2022-12-17T03:46:26.750Z,50.908127
2022-12-17T03:47:26.686Z,50.908123
2022-12-17T03:48:26.678Z,50.908165
2022-12-17T03:49:26.697Z,50.908096
2022-12-17T03:50:26.670Z,50.908024
2022-12-17T03:51:26.655Z,50.908035
2022-12-17T03:52:26.652Z,50.908070
2022-12-17T03:53:26.642Z,50.908073
2022-12-17T03:54:26.658Z,50.908100
2022-12-17T03:55:26.628Z,50.908131
2022-12-17T03:56:26.616Z,50.908092
2022-12-17T03:57:26.609Z,50.908077
2022-12-17T03:58:26.606Z,50.908039
2022-12-17T03:59:26.619Z,50.908043
2022-12-17T04:00:26.587Z,50.908089
2022-12-17T04:01:26.684Z,50.908089
2022-12-17T04:02:26.699Z,50.908096
2022-12-17T04:03:26.605Z,50.908100
2022-12-17T04:04:26.583Z,50.908131
2022-12-17T04:05:26.555Z,50.908108
2022-12-17T04:06:26.572Z,50.908146
2022-12-17T04:07:26.531Z,50.908085
2022-12-17T04:08:26.524Z,50.908051
2022-12-17T04:09:26.520Z,50.908123
2022-12-17T04:10:26.514Z,50.908119
2022-12-17T04:11:26.531Z,50.908089
2022-12-17T04:12:27.497Z,50.908123
2022-12-17T04:13:26.495Z,50.908062
2022-12-17T04:14:26.485Z,50.908100
2022-12-17T04:15:26.564Z,50.908161
2022-12-17T04:16:26.474Z,50.908134
2022-12-17T04:17:26.490Z,50.908138
2022-12-17T04:18:26.460Z,50.908138
2022-12-17T04:19:26.454Z,50.908127
2022-12-17T04:20:26.444Z,50.908108
2022-12-17T04:21:26.467Z,50.908085
2022-12-17T04:22:26.430Z,50.908115
2022-12-17T04:23:26.421Z,50.908127
2022-12-17T04:24:26.414Z,50.908146
2022-12-17T04:25:26.409Z,50.908127
2022-12-17T04:26:26.403Z,50.908138
2022-12-17T04:27:26.419Z,50.908154
2022-12-17T04:28:26.384Z,50.908112
2022-12-17T04:29:26.377Z,50.908123
2022-12-17T04:30:26.373Z,50.908131
2022-12-17T04:31:26.436Z,50.908100
2022-12-17T04:32:29.065Z,50.908127
2022-12-17T04:33:26.346Z,50.908146
2022-12-17T04:34:27.348Z,50.908134
2022-12-17T04:35:26.337Z,50.908157
2022-12-17T04:36:26.331Z,50.908134
2022-12-17T04:37:26.353Z,50.908165
2022-12-17T04:38:26.321Z,50.908295
2022-12-17T04:39:26.316Z,50.908249
2022-12-17T04:40:26.312Z,50.908085
2022-12-17T04:41:26.298Z,50.908077
2022-12-17T04:42:26.307Z,50.908169
2022-12-17T04:43:27.289Z,50.908154
2022-12-17T04:44:26.280Z,50.908134
2022-12-17T04:45:26.269Z,50.908081
2022-12-17T04:46:26.342Z,50.908108
2022-12-17T04:47:26.280Z,50.908150
2022-12-17T04:48:26.248Z,50.908108
2022-12-17T04:49:26.238Z,50.908108
2022-12-17T04:50:26.231Z,50.908066
2022-12-17T04:51:26.229Z,50.908100
2022-12-17T04:52:26.221Z,50.908070
2022-12-17T04:53:26.238Z,50.908028
2022-12-17T04:54:26.204Z,50.908131
2022-12-17T04:55:26.194Z,50.908127
2022-12-17T04:56:26.190Z,50.908154
2022-12-17T04:57:26.191Z,50.908142
2022-12-17T04:58:26.202Z,50.908192
2022-12-17T04:59:26.165Z,50.908195
2022-12-17T05:00:26.160Z,50.908199
2022-12-17T05:01:26.285Z,50.908165
2022-12-17T05:02:26.281Z,50.908184
2022-12-17T05:03:26.245Z,50.908081
2022-12-17T05:04:26.133Z,50.908211
2022-12-17T05:05:26.122Z,50.908215
2022-12-17T05:06:26.120Z,50.908260
2022-12-17T05:07:26.109Z,50.908157
2022-12-17T05:08:26.131Z,50.908146
2022-12-17T05:09:26.098Z,50.908134
2022-12-17T05:10:26.088Z,50.908131
2022-12-17T05:11:26.081Z,50.908169
2022-12-17T05:12:26.072Z,50.908131
2022-12-17T05:13:26.064Z,50.908138
2022-12-17T05:14:26.081Z,50.908123
2022-12-17T05:15:26.050Z,50.908138
2022-12-17T05:16:26.094Z,50.908134
2022-12-17T05:17:26.110Z,50.908127
2022-12-17T05:18:26.032Z,50.908161
2022-12-17T05:19:26.051Z,50.908150
2022-12-17T05:20:26.015Z,50.908176
2022-12-17T05:21:30.585Z,50.908161
2022-12-17T05:22:27.000Z,50.908154
2022-12-17T05:23:25.991Z,50.908157
2022-12-17T05:24:26.010Z,50.908150
2022-12-17T05:25:25.979Z,50.908142
2022-12-17T05:26:25.973Z,50.908169
2022-12-17T05:27:25.966Z,50.908165
2022-12-17T05:28:25.957Z,50.908150
2022-12-17T05:29:25.975Z,50.908157
2022-12-17T05:30:25.941Z,50.908195
2022-12-17T05:31:25.985Z,50.908154
2022-12-17T05:32:25.929Z,50.908150
2022-12-17T05:33:25.934Z,50.908123
2022-12-17T05:34:25.943Z,50.908150
2022-12-17T05:35:25.907Z,50.908173
2022-12-17T05:36:25.903Z,50.908169
2022-12-17T05:37:25.894Z,50.908176
2022-12-17T05:38:25.889Z,50.908192
2022-12-17T05:39:25.903Z,50.908134
2022-12-17T05:40:25.871Z,50.908188
2022-12-17T05:41:25.863Z,50.908112
2022-12-17T05:42:25.857Z,50.908115
2022-12-17T05:43:25.851Z,50.908184
2022-12-17T05:44:25.868Z,50.908207
2022-12-17T05:45:25.835Z,50.908127
2022-12-17T05:46:25.927Z,50.908066
2022-12-17T05:47:25.822Z,50.908146
2022-12-17T05:48:25.811Z,50.908154
2022-12-17T05:49:25.829Z,50.908180
2022-12-17T05:50:25.800Z,50.908146
2022-12-17T05:51:25.798Z,50.908180
2022-12-17T05:52:25.784Z,50.908176
2022-12-17T05:53:25.776Z,50.908207
2022-12-17T05:54:25.795Z,50.908195
2022-12-17T05:55:25.766Z,50.908112
2022-12-17T05:56:25.756Z,50.908157
2022-12-17T05:57:25.753Z,50.908150
2022-12-17T05:58:25.737Z,50.908169
2022-12-17T05:59:25.769Z,50.908142
2022-12-17T06:00:25.735Z,50.908066
2022-12-17T06:01:25.756Z,50.908108
2022-12-17T06:02:25.760Z,50.908123
2022-12-17T06:03:25.768Z,50.908230
2022-12-17T06:04:25.699Z,50.908146
2022-12-17T06:05:25.718Z,50.908127
2022-12-17T06:06:25.685Z,50.908081
2022-12-17T06:07:25.675Z,50.908089
2022-12-17T06:08:25.671Z,50.908154
2022-12-17T06:09:25.663Z,50.907951
2022-12-17T06:10:25.683Z,50.908146
2022-12-17T06:11:25.653Z,50.908142
2022-12-17T06:12:25.644Z,50.908089
2022-12-17T06:13:25.639Z,50.907955
2022-12-17T06:14:25.625Z,50.907909
2022-12-17T06:15:25.656Z,50.907951
2022-12-17T06:16:25.660Z,50.907944
2022-12-17T06:17:25.608Z,50.907974
2022-12-17T06:18:25.603Z,50.908001
2022-12-17T06:19:25.594Z,50.908020
2022-12-17T06:20:25.610Z,50.907974
2022-12-17T06:21:25.577Z,50.907974
2022-12-17T06:22:25.578Z,50.907917
2022-12-17T06:23:25.566Z,50.908024
2022-12-17T06:24:25.559Z,50.908108
2022-12-17T06:25:25.575Z,50.908054
2022-12-17T06:26:25.547Z,50.908005
2022-12-17T06:27:25.539Z,50.908035
2022-12-17T06:28:25.532Z,50.908077
2022-12-17T06:29:25.525Z,50.907936
2022-12-17T06:30:25.548Z,50.907990
2022-12-17T06:31:25.603Z,50.908001
2022-12-17T06:32:25.502Z,50.908096
2022-12-17T06:33:25.501Z,50.907719
2022-12-17T06:34:25.485Z,50.908104
2022-12-17T06:35:25.499Z,50.908096
2022-12-17T06:36:25.471Z,50.908154
2022-12-17T06:37:25.465Z,50.908073
2022-12-17T06:38:25.462Z,50.908123
2022-12-17T06:39:25.448Z,50.908119
2022-12-17T06:40:25.466Z,50.908142
2022-12-17T06:41:25.431Z,50.908104
2022-12-17T06:42:25.429Z,50.908119
2022-12-17T06:43:25.418Z,50.908165
2022-12-17T06:44:25.413Z,50.908119
2022-12-17T06:45:25.435Z,50.908070
2022-12-17T06:46:25.415Z,50.908016
2022-12-17T06:47:25.392Z,50.907948
2022-12-17T06:48:25.376Z,50.908142
2022-12-17T06:49:25.357Z,50.908131
2022-12-17T06:50:26.391Z,50.908161
2022-12-17T06:51:25.356Z,50.908264
2022-12-17T06:52:25.351Z,50.908092
2022-12-17T06:53:25.344Z,50.908092
2022-12-17T06:54:25.335Z,50.908146
2022-12-17T06:55:25.323Z,50.908119
2022-12-17T06:56:25.343Z,50.908100
2022-12-17T06:57:25.317Z,50.908112
2022-12-17T06:58:25.305Z,50.908100
2022-12-17T06:59:25.296Z,50.908157
2022-12-17T07:00:25.290Z,50.908150
2022-12-17T07:01:25.408Z,50.908188
2022-12-17T07:02:25.422Z,50.908108
2022-12-17T07:03:25.332Z,50.908150
2022-12-17T07:04:26.263Z,50.908104
2022-12-17T07:05:25.257Z,50.908165
2022-12-17T07:06:25.265Z,50.908165
2022-12-17T07:07:25.236Z,50.908188
2022-12-17T07:08:25.235Z,50.908127
2022-12-17T07:09:25.270Z,50.908150
2022-12-17T07:10:25.212Z,50.908146
2022-12-17T07:11:25.278Z,50.908112
2022-12-17T07:12:25.200Z,50.908092
2022-12-17T07:13:25.192Z,50.908131
2022-12-17T07:14:25.188Z,50.908123
2022-12-17T07:15:25.183Z,50.908123
2022-12-17T07:16:25.230Z,50.908123
2022-12-17T07:17:25.167Z,50.908100
2022-12-17T07:18:25.164Z,50.908169
2022-12-17T07:19:27.411Z,50.908134
2022-12-17T07:20:26.145Z,50.908150
2022-12-17T07:21:25.172Z,50.908127
2022-12-17T07:22:25.127Z,50.908146
2022-12-17T07:23:25.120Z,50.908054
2022-12-17T07:24:25.099Z,50.908188
2022-12-17T07:25:26.102Z,50.908115
2022-12-17T07:26:25.120Z,50.908157
2022-12-17T07:27:25.089Z,50.908134
2022-12-17T07:28:25.087Z,50.908150
2022-12-17T07:29:25.071Z,50.908150
2022-12-17T07:30:25.067Z,50.908169
2022-12-17T07:31:25.121Z,50.908195
2022-12-17T07:32:25.053Z,50.908173
2022-12-17T07:33:25.049Z,50.908165
2022-12-17T07:34:25.038Z,50.908146
2022-12-17T07:35:25.047Z,50.908115
2022-12-17T07:36:25.065Z,50.908127
2022-12-17T07:37:25.021Z,50.908123
2022-12-17T07:38:25.014Z,50.908150
2022-12-17T07:39:25.000Z,50.908127
2022-12-17T07:40:25.004Z,50.908180
2022-12-17T07:41:25.022Z,50.908195
2022-12-17T07:42:24.983Z,50.908165
2022-12-17T07:43:24.976Z,50.908142
2022-12-17T07:44:24.968Z,50.908150
2022-12-17T07:45:24.991Z,50.908253
2022-12-17T07:46:24.953Z,50.908176
2022-12-17T07:47:24.974Z,50.908138
2022-12-17T07:48:24.936Z,50.908146
2022-12-17T07:49:26.042Z,50.908195
2022-12-17T07:50:25.976Z,50.908211
2022-12-17T07:51:24.923Z,50.908150
2022-12-17T07:52:24.939Z,50.908173
2022-12-17T07:53:24.903Z,50.908157
2022-12-17T07:54:24.894Z,50.908157
2022-12-17T07:55:24.900Z,50.908150
2022-12-17T07:56:24.886Z,50.908134
2022-12-17T07:57:24.903Z,50.908100
2022-12-17T07:58:24.882Z,50.908119
2022-12-17T07:59:24.864Z,50.908146
2022-12-17T08:00:24.852Z,50.908115
2022-12-17T08:01:26.016Z,50.908138
2022-12-17T08:02:25.131Z,50.908134
2022-12-17T08:03:24.927Z,50.908127
2022-12-17T08:04:24.827Z,50.908176
2022-12-17T08:05:24.824Z,50.908115
2022-12-17T08:06:24.816Z,50.908134
2022-12-17T08:07:24.836Z,50.908138
2022-12-17T08:08:24.801Z,50.908173
2022-12-17T08:09:24.792Z,50.908165
2022-12-17T08:10:24.853Z,50.908161
2022-12-17T08:11:24.779Z,50.908154
2022-12-17T08:12:24.799Z,50.908127
2022-12-17T08:13:24.762Z,50.908134
2022-12-17T08:14:24.752Z,50.908165
2022-12-17T08:15:24.740Z,50.908138
2022-12-17T08:16:24.774Z,50.908104
2022-12-17T08:17:24.764Z,50.908134
2022-12-17T08:18:26.903Z,50.908115
2022-12-17T08:19:25.718Z,50.908127
2022-12-17T08:20:24.702Z,50.908081
2022-12-17T08:21:24.693Z,50.908104
2022-12-17T08:22:24.717Z,50.908138
2022-12-17T08:23:24.683Z,50.908131
2022-12-17T08:24:24.670Z,50.908115
2022-12-17T08:25:24.668Z,50.908142
2022-12-17T08:26:24.661Z,50.908134
2022-12-17T08:27:24.680Z,50.908203
2022-12-17T08:28:49.639Z,50.908112
2022-12-17T08:29:26.638Z,50.908119
2022-12-17T08:30:24.770Z,50.908146
2022-12-17T08:31:24.689Z,50.908131
2022-12-17T08:32:24.634Z,50.908165
2022-12-17T08:33:24.606Z,50.908169
2022-12-17T08:34:24.601Z,50.908123
2022-12-17T08:35:24.590Z,50.908073
2022-12-17T08:36:24.583Z,50.908142
2022-12-17T08:37:24.600Z,50.908077
2022-12-17T08:38:25.570Z,50.908092
2022-12-17T08:39:24.564Z,50.908138
2022-12-17T08:40:24.551Z,50.908127
2022-12-17T08:41:24.546Z,50.908096
2022-12-17T08:42:24.568Z,50.908104
2022-12-17T08:43:24.537Z,50.908134
2022-12-17T08:44:24.525Z,50.908268
2022-12-17T08:45:24.517Z,50.908195
2022-12-17T08:46:24.548Z,50.908077
2022-12-17T08:47:24.508Z,50.908089
2022-12-17T08:48:24.521Z,50.908100
2022-12-17T08:49:24.490Z,50.908096
2022-12-17T08:50:24.480Z,50.908089
2022-12-17T08:51:24.476Z,50.907959
2022-12-17T08:52:24.464Z,50.908009
2022-12-17T08:53:24.483Z,50.907978
2022-12-17T08:54:24.454Z,50.908016
2022-12-17T08:55:24.446Z,50.908131
2022-12-17T08:56:24.450Z,50.908100
2022-12-17T08:57:31.494Z,50.908154
2022-12-17T08:58:26.451Z,50.908138
2022-12-17T08:59:24.421Z,50.908054
2022-12-17T09:00:24.412Z,50.908066
2022-12-17T09:01:24.536Z,50.908089
2022-12-17T09:02:24.616Z,50.908058
2022-12-17T09:03:24.470Z,50.908020
2022-12-17T09:04:24.383Z,50.908020
2022-12-17T09:05:24.375Z,50.908020
2022-12-17T09:06:24.366Z,50.907928
2022-12-17T09:07:24.359Z,50.908123
2022-12-17T09:08:24.380Z,50.908184
2022-12-17T09:09:24.352Z,50.908592
2022-12-17T09:10:24.341Z,50.908157
2022-12-17T09:11:24.333Z,50.908108
2022-12-17T09:12:24.332Z,50.908134
2022-12-17T09:13:24.342Z,50.908169
2022-12-17T09:14:24.314Z,50.908260
2022-12-17T09:15:24.300Z,50.908268
2022-12-17T09:16:24.359Z,50.908268
2022-12-17T09:17:24.287Z,50.908279
2022-12-17T09:18:24.311Z,50.908257
2022-12-17T09:19:24.276Z,50.908211
2022-12-17T09:20:29.107Z,50.908150
2022-12-17T09:21:27.249Z,50.908134
2022-12-17T09:22:24.256Z,50.908157
2022-12-17T09:23:24.274Z,50.908367
2022-12-17T09:24:24.239Z,50.907955
2022-12-17T09:25:24.235Z,50.908245
2022-12-17T09:26:24.229Z,50.908100
2022-12-17T09:27:24.222Z,50.908463
2022-12-17T09:28:24.218Z,50.908192
2022-12-17T09:29:24.235Z,50.908253
2022-12-17T09:30:24.221Z,50.908253
2022-12-17T09:31:24.217Z,50.908306
2022-12-17T09:32:24.179Z,50.908455
2022-12-17T09:33:24.172Z,50.908455
2022-12-17T09:34:24.196Z,50.908455
2022-12-17T09:35:24.163Z,50.908455
2022-12-17T09:36:24.154Z,50.908455
2022-12-17T09:37:24.150Z,50.908455
2022-12-17T09:38:24.147Z,50.908455
2022-12-17T09:39:24.173Z,50.908455
2022-12-17T09:40:24.123Z,50.908455
2022-12-17T09:41:24.113Z,50.908455
2022-12-17T09:42:24.106Z,50.908455
2022-12-17T09:43:24.101Z,50.908455
2022-12-17T09:44:24.120Z,50.908455
2022-12-17T09:45:24.089Z,50.908344
2022-12-17T09:46:24.129Z,50.908134
2022-12-17T09:47:24.069Z,50.908119
2022-12-17T09:48:26.907Z,50.908150
2022-12-17T09:49:25.080Z,50.908150
2022-12-17T09:50:24.049Z,50.908257
2022-12-17T09:51:24.047Z,50.908215
2022-12-17T09:52:24.032Z,50.908264
2022-12-17T09:53:24.023Z,50.908253
2022-12-17T09:54:24.046Z,50.908184
2022-12-17T09:55:24.013Z,50.908138
2022-12-17T09:56:24.006Z,50.908203
2022-12-17T09:57:23.997Z,50.908188
2022-12-17T09:58:23.993Z,50.908176
2022-12-17T09:59:24.011Z,50.908173
2022-12-17T10:00:23.981Z,50.908195
2022-12-17T10:01:24.061Z,50.908165
2022-12-17T10:02:24.135Z,50.908100
2022-12-17T10:03:24.013Z,50.907833
2022-12-17T10:04:23.975Z,50.908089
2022-12-17T10:05:23.941Z,50.908092
2022-12-17T10:06:23.934Z,50.908058
2022-12-17T10:07:23.931Z,50.908108
2022-12-17T10:08:23.918Z,50.908112
2022-12-17T10:09:23.940Z,50.908104
2022-12-17T10:10:23.912Z,50.908112
2022-12-17T10:11:23.901Z,50.908150
2022-12-17T10:12:23.895Z,50.908157
2022-12-17T10:13:23.894Z,50.908100
2022-12-17T10:14:23.907Z,50.908115
2022-12-17T10:15:23.871Z,50.908241
2022-12-17T10:16:23.895Z,50.908138
2022-12-17T10:17:23.856Z,50.908150
2022-12-17T10:18:23.854Z,50.908070
2022-12-17T10:19:23.874Z,50.907875
2022-12-17T10:20:23.833Z,50.907986
2022-12-17T10:21:23.832Z,50.908100
2022-12-17T10:22:23.820Z,50.908169
2022-12-17T10:23:23.812Z,50.908131
2022-12-17T10:24:23.807Z,50.908138
2022-12-17T10:25:23.816Z,50.908123
2022-12-17T10:26:23.788Z,50.908119
2022-12-17T10:27:23.787Z,50.908058
2022-12-17T10:28:23.779Z,50.908142
2022-12-17T10:29:23.766Z,50.908092
2022-12-17T10:30:23.783Z,50.908062
2022-12-17T10:31:23.799Z,50.908085
2022-12-17T10:32:23.744Z,50.908085
2022-12-17T10:33:23.739Z,50.908127
2022-12-17T10:34:23.729Z,50.908199
2022-12-17T10:35:23.741Z,50.908115
2022-12-17T10:36:23.710Z,50.908138
2022-12-17T10:37:23.709Z,50.908142
2022-12-17T10:38:23.697Z,50.908249
2022-12-17T10:39:23.695Z,50.908203
2022-12-17T10:40:23.705Z,50.908165
2022-12-17T10:41:23.677Z,50.908131
2022-12-17T10:42:23.679Z,50.908131
2022-12-17T10:43:23.661Z,50.908165
2022-12-17T10:44:23.661Z,50.908150
2022-12-17T10:45:23.676Z,50.908150
2022-12-17T10:46:23.674Z,50.908161
2022-12-17T10:47:23.634Z,50.908054
2022-12-17T10:48:23.630Z,50.908112
2022-12-17T10:49:23.620Z,50.908100
2022-12-17T10:50:23.644Z,50.908157
2022-12-17T10:51:23.606Z,50.908085
2022-12-17T10:52:23.620Z,50.908150
2022-12-17T10:53:23.595Z,50.908157
2022-12-17T10:54:23.587Z,50.908176
2022-12-17T10:55:23.604Z,50.908188
2022-12-17T10:56:23.572Z,50.908169
2022-12-17T10:57:23.565Z,50.908146
2022-12-17T10:58:23.556Z,50.908119
2022-12-17T10:59:23.554Z,50.908176
2022-12-17T11:00:23.572Z,50.908203
2022-12-17T11:01:23.652Z,50.908169
2022-12-17T11:02:23.821Z,50.908127
2022-12-17T11:03:23.575Z,50.908161
2022-12-17T11:04:23.516Z,50.908138
2022-12-17T11:05:23.536Z,50.908100
2022-12-17T11:06:23.498Z,50.908173
2022-12-17T11:07:23.488Z,50.908169
2022-12-17T11:08:23.483Z,50.908165
2022-12-17T11:09:23.473Z,50.908203
2022-12-17T11:10:23.474Z,50.908157
2022-12-17T11:11:23.488Z,50.908138
2022-12-17T11:12:28.672Z,50.908173
2022-12-17T11:13:25.447Z,50.908199
2022-12-17T11:14:23.443Z,50.908173
2022-12-17T11:15:23.434Z,50.908188
2022-12-17T11:16:23.483Z,50.908176
2022-12-17T11:17:23.425Z,50.908150
2022-12-17T11:18:23.410Z,50.908180
2022-12-17T11:19:23.413Z,50.908180
2022-12-17T11:20:23.392Z,50.908146
2022-12-17T11:21:23.415Z,50.908066
2022-12-17T11:22:23.387Z,50.908253
2022-12-17T11:23:23.370Z,50.908176
2022-12-17T11:24:23.364Z,50.908195